createdAt,value
2019-03-30T00:00:03.600Z,6.96
2019-03-30T00:02:35.405Z,6.94
2019-03-30T00:05:02.302Z,6.97
2019-03-30T00:07:31.236Z,6.97
2019-03-30T00:09:59.775Z,6.96
2019-03-30T00:12:28.257Z,6.93
2019-03-30T00:14:56.791Z,6.89
2019-03-30T00:17:25.547Z,6.87
2019-03-30T00:19:54.233Z,6.84
2019-03-30T00:22:22.736Z,6.82
2019-03-30T00:24:51.426Z,6.79
2019-03-30T00:27:19.912Z,6.75
2019-03-30T00:29:48.795Z,6.70
2019-03-30T00:32:17.264Z,6.65
2019-03-30T00:34:45.807Z,6.63
2019-03-30T00:37:14.448Z,6.58
2019-03-30T00:39:42.943Z,6.55
2019-03-30T00:42:11.774Z,6.52
2019-03-30T00:48:09.390Z,6.46
2019-03-30T00:50:37.958Z,6.42
2019-03-30T00:53:06.426Z,6.40
2019-03-30T00:55:35.465Z,6.37
2019-03-30T00:58:03.949Z,6.33
2019-03-30T01:00:32.499Z,6.32
2019-03-30T01:03:01.538Z,6.29
2019-03-30T01:05:30.018Z,6.28
2019-03-30T01:07:58.658Z,6.27
2019-03-30T01:10:27.458Z,6.26
2019-03-30T01:12:56.178Z,6.24
2019-03-30T01:15:24.893Z,6.21
2019-03-30T01:17:53.547Z,6.18
2019-03-30T01:20:22.032Z,6.17
2019-03-30T01:22:50.517Z,6.14
2019-03-30T01:25:19.026Z,6.11
2019-03-30T01:27:47.504Z,6.11
2019-03-30T01:30:22.907Z,6.08
2019-03-30T01:32:47.512Z,6.05
2019-03-30T01:35:16.020Z,6.03
2019-03-30T01:37:44.649Z,6.02
2019-03-30T01:40:13.367Z,6.01
2019-03-30T01:42:42.013Z,6.02
2019-03-30T01:45:10.697Z,6.02
2019-03-30T01:47:39.405Z,6.01
2019-03-30T01:50:17.064Z,5.97
2019-03-30T01:52:40.451Z,5.93
2019-03-30T01:55:09.482Z,5.89
2019-03-30T01:57:37.957Z,5.87
2019-03-30T02:00:10.911Z,5.85
2019-03-30T02:02:39.602Z,5.83
2019-03-30T02:05:08.315Z,5.81
2019-03-30T02:07:36.803Z,5.80
2019-03-30T02:10:06.522Z,5.80
2019-03-30T02:12:34.994Z,5.78
2019-03-30T02:15:04.889Z,5.77
2019-03-30T02:17:33.727Z,5.76
2019-03-30T02:20:03.336Z,5.76
2019-03-30T02:22:31.822Z,5.73
2019-03-30T02:25:00.384Z,5.71
2019-03-30T02:27:28.854Z,5.70
2019-03-30T02:29:57.326Z,5.67
2019-03-30T02:32:25.911Z,5.65
2019-03-30T02:34:54.398Z,5.62
2019-03-30T02:37:22.971Z,5.60
2019-03-30T02:39:51.861Z,5.60
2019-03-30T02:42:20.616Z,5.58
2019-03-30T02:44:49.125Z,5.56
2019-03-30T02:47:17.853Z,5.54
2019-03-30T02:49:46.403Z,5.53
2019-03-30T02:52:15.017Z,5.52
2019-03-30T02:54:43.791Z,5.50
2019-03-30T02:57:12.455Z,5.51
2019-03-30T02:59:41.058Z,5.49
2019-03-30T03:02:10.417Z,5.49
2019-03-30T03:04:39.231Z,5.49
2019-03-30T03:07:07.730Z,5.47
2019-03-30T03:09:36.440Z,5.45
2019-03-30T03:12:04.950Z,5.42
2019-03-30T03:14:33.461Z,5.40
2019-03-30T03:17:02.151Z,5.38
2019-03-30T03:19:30.609Z,5.37
2019-03-30T03:21:59.400Z,5.35
2019-03-30T03:24:28.206Z,5.32
2019-03-30T03:26:56.692Z,5.34
2019-03-30T03:29:25.167Z,5.34
2019-03-30T03:31:53.675Z,5.33
2019-03-30T03:34:22.149Z,5.31
2019-03-30T03:36:50.677Z,5.30
2019-03-30T03:39:19.182Z,5.31
2019-03-30T03:41:47.752Z,5.30
2019-03-30T03:44:16.452Z,5.31
2019-03-30T03:46:44.974Z,5.29
2019-03-30T03:49:13.452Z,5.29
2019-03-30T03:51:42.161Z,5.25
2019-03-30T03:54:11.222Z,5.25
2019-03-30T03:56:40.768Z,5.24
2019-03-30T03:59:10.834Z,5.24
2019-03-30T04:01:41.616Z,5.23
2019-03-30T04:04:12.616Z,5.20
2019-03-30T04:06:43.642Z,5.20
2019-03-30T04:09:15.534Z,5.18
2019-03-30T04:11:45.705Z,5.17
2019-03-30T04:14:16.329Z,5.17
2019-03-30T04:16:45.616Z,5.15
2019-03-30T04:19:14.091Z,5.14
2019-03-30T04:21:44.635Z,5.13
2019-03-30T04:24:13.091Z,5.13
2019-03-30T04:26:41.618Z,5.10
2019-03-30T04:29:10.296Z,5.09
2019-03-30T04:31:39.041Z,5.11
2019-03-30T04:34:07.512Z,5.11
2019-03-30T04:36:36.051Z,5.12
2019-03-30T04:39:05.613Z,5.13
2019-03-30T04:41:34.089Z,5.13
2019-03-30T04:44:02.631Z,5.13
2019-03-30T04:46:31.142Z,5.15
2019-03-30T04:48:59.620Z,5.15
2019-03-30T04:51:28.099Z,5.16
2019-03-30T04:53:57.137Z,5.16
2019-03-30T04:56:25.640Z,5.17
2019-03-30T04:58:54.127Z,5.18
2019-03-30T05:01:22.691Z,5.18
2019-03-30T05:03:51.158Z,5.19
2019-03-30T05:06:19.645Z,5.19
2019-03-30T05:08:48.227Z,5.21
2019-03-30T05:11:17.021Z,5.23
2019-03-30T05:13:45.529Z,5.23
2019-03-30T05:16:14.114Z,5.24
2019-03-30T05:18:42.610Z,5.26
2019-03-30T05:21:11.124Z,5.28
2019-03-30T05:23:39.894Z,5.31
2019-03-30T05:26:08.373Z,5.34
2019-03-30T05:28:36.851Z,5.37
2019-03-30T05:31:05.364Z,5.40
2019-03-30T05:33:34.198Z,5.44
2019-03-30T05:36:02.682Z,5.47
2019-03-30T05:38:31.303Z,5.50
2019-03-30T05:40:59.778Z,5.55
2019-03-30T05:43:28.293Z,5.58
2019-03-30T05:45:56.788Z,5.62
2019-03-30T05:48:25.300Z,5.67
2019-03-30T05:50:53.784Z,5.72
2019-03-30T05:53:22.296Z,5.79
2019-03-30T05:55:50.767Z,5.84
2019-03-30T05:58:19.258Z,5.89
2019-03-30T06:00:48.361Z,5.94
2019-03-30T06:03:16.842Z,6.01
2019-03-30T06:05:45.306Z,6.08
2019-03-30T06:08:15.331Z,6.15
2019-03-30T06:10:43.842Z,6.24
2019-03-30T06:13:12.322Z,6.32
2019-03-30T06:15:41.288Z,6.42
2019-03-30T06:18:11.404Z,6.50
2019-03-30T06:20:40.089Z,6.61
2019-03-30T06:23:15.759Z,6.70
2019-03-30T06:25:44.363Z,6.82
2019-03-30T06:28:13.827Z,6.92
2019-03-30T06:30:43.331Z,7.02
2019-03-30T06:33:13.766Z,7.13
2019-03-30T06:35:46.440Z,7.26
2019-03-30T06:38:16.274Z,7.37
2019-03-30T06:40:45.830Z,7.49
2019-03-30T06:43:15.374Z,7.62
2019-03-30T06:45:45.692Z,7.72
2019-03-30T06:48:14.647Z,7.84
2019-03-30T06:50:43.426Z,7.96
2019-03-30T06:53:12.549Z,8.08
2019-03-30T06:55:41.272Z,8.19
2019-03-30T06:58:10.213Z,8.29
2019-03-30T07:00:39.610Z,8.41
2019-03-30T07:03:09.036Z,8.53
2019-03-30T07:05:43.144Z,8.65
2019-03-30T07:08:17.040Z,8.76
2019-03-30T07:10:46.946Z,8.86
2019-03-30T07:13:15.817Z,8.98
2019-03-30T07:15:49.250Z,9.09
2019-03-30T07:18:18.742Z,9.21
2019-03-30T07:20:47.656Z,9.31
2019-03-30T07:23:16.373Z,9.40
2019-03-30T07:25:44.871Z,9.49
2019-03-30T07:28:13.337Z,9.58
2019-03-30T07:30:41.956Z,9.68
2019-03-30T07:33:10.435Z,9.77
2019-03-30T07:35:38.982Z,9.87
2019-03-30T07:38:07.668Z,9.96
2019-03-30T07:40:36.135Z,10.05
2019-03-30T07:43:04.732Z,10.17
2019-03-30T07:45:34.078Z,10.29
2019-03-30T07:48:02.590Z,10.42
2019-03-30T07:50:31.147Z,10.57
2019-03-30T07:52:59.682Z,10.72
2019-03-30T07:55:28.158Z,10.87
2019-03-30T07:57:57.676Z,11.01
2019-03-30T08:00:30.708Z,11.13
2019-03-30T08:02:57.345Z,11.25
2019-03-30T08:05:25.876Z,11.38
2019-03-30T08:07:54.589Z,11.51
2019-03-30T08:10:23.419Z,11.63
2019-03-30T08:12:51.893Z,11.72
2019-03-30T08:15:21.127Z,11.80
2019-03-30T08:17:49.768Z,11.88
2019-03-30T08:20:18.400Z,11.95
2019-03-30T08:22:47.124Z,12.02
2019-03-30T08:25:15.605Z,12.08
2019-03-30T08:27:44.312Z,12.14
2019-03-30T08:30:13.393Z,12.21
2019-03-30T08:32:41.871Z,12.28
2019-03-30T08:35:11.679Z,12.33
2019-03-30T08:37:40.610Z,12.40
2019-03-30T08:40:09.512Z,12.45
2019-03-30T08:42:41.009Z,12.53
2019-03-30T08:45:10.219Z,12.61
2019-03-30T08:47:38.768Z,12.71
2019-03-30T08:50:09.145Z,12.80
2019-03-30T08:52:37.707Z,12.89
2019-03-30T08:55:08.233Z,12.98
2019-03-30T08:57:37.546Z,13.08
2019-03-30T09:00:07.416Z,13.17
2019-03-30T09:02:35.896Z,13.28
2019-03-30T09:05:06.431Z,13.39
2019-03-30T09:07:34.988Z,13.47
2019-03-30T09:10:05.657Z,13.56
2019-03-30T09:12:34.312Z,13.66
2019-03-30T09:15:03.051Z,13.74
2019-03-30T09:17:31.534Z,13.85
2019-03-30T09:20:00.016Z,13.94
2019-03-30T09:22:29.726Z,14.06
2019-03-30T09:24:58.268Z,14.20
2019-03-30T09:27:26.775Z,14.37
2019-03-30T09:29:55.281Z,14.52
2019-03-30T09:32:23.769Z,14.63
2019-03-30T09:34:52.307Z,14.72
2019-03-30T09:37:20.915Z,14.78
2019-03-30T09:39:49.515Z,14.87
2019-03-30T09:42:18.135Z,14.98
2019-03-30T09:44:46.873Z,15.08
2019-03-30T09:47:15.471Z,15.17
2019-03-30T09:49:44.044Z,15.25
2019-03-30T09:52:12.620Z,15.28
2019-03-30T09:54:41.105Z,15.29
2019-03-30T09:57:09.856Z,15.30
2019-03-30T09:59:38.495Z,15.34
2019-03-30T10:02:07.006Z,15.42
2019-03-30T10:04:35.678Z,15.51
2019-03-30T10:07:04.719Z,15.60
2019-03-30T10:09:33.326Z,15.70
2019-03-30T10:12:02.193Z,15.79
2019-03-30T10:14:30.697Z,15.89
2019-03-30T10:16:59.436Z,15.94
2019-03-30T10:19:27.996Z,16.02
2019-03-30T10:21:56.636Z,16.09
2019-03-30T10:24:37.525Z,16.19
2019-03-30T10:26:55.691Z,16.30
2019-03-30T10:29:24.338Z,16.44
2019-03-30T10:31:53.402Z,16.61
2019-03-30T10:34:22.117Z,16.73
2019-03-30T10:36:51.169Z,16.84
2019-03-30T10:39:19.656Z,16.96
2019-03-30T10:41:48.149Z,17.03
2019-03-30T10:44:16.730Z,17.05
2019-03-30T10:46:45.175Z,17.02
2019-03-30T10:49:14.122Z,17.06
2019-03-30T10:51:42.719Z,17.19
2019-03-30T10:54:11.219Z,17.32
2019-03-30T10:56:39.819Z,17.45
2019-03-30T10:59:08.498Z,17.49
2019-03-30T11:01:36.993Z,17.53
2019-03-30T11:04:05.569Z,17.58
2019-03-30T11:06:35.477Z,17.65
2019-03-30T11:09:04.926Z,17.73
2019-03-30T11:11:33.404Z,17.73
2019-03-30T11:14:02.024Z,17.72
2019-03-30T11:16:30.508Z,17.67
2019-03-30T11:18:59.177Z,17.58
2019-03-30T11:21:27.680Z,17.50
2019-03-30T11:23:59.471Z,17.45
2019-03-30T11:26:28.079Z,17.47
2019-03-30T11:28:56.617Z,17.49
2019-03-30T11:31:25.222Z,17.59
2019-03-30T11:33:53.719Z,17.73
2019-03-30T11:36:22.319Z,17.85
2019-03-30T11:38:51.164Z,17.94
2019-03-30T11:41:19.998Z,18.03
2019-03-30T11:43:48.538Z,18.12
2019-03-30T11:46:17.478Z,18.20
2019-03-30T11:48:45.959Z,18.27
2019-03-30T11:51:14.774Z,18.37
2019-03-30T11:53:43.345Z,18.41
2019-03-30T11:56:11.829Z,18.46
2019-03-30T11:58:40.343Z,18.55
2019-03-30T12:01:08.831Z,18.68
2019-03-30T12:03:37.320Z,18.82
2019-03-30T12:06:06.151Z,18.93
2019-03-30T12:08:34.791Z,19.00
2019-03-30T12:11:03.869Z,19.05
2019-03-30T12:13:32.387Z,19.04
2019-03-30T12:16:00.887Z,19.01
2019-03-30T12:18:29.927Z,18.98
2019-03-30T12:20:59.226Z,18.97
2019-03-30T12:23:27.950Z,19.05
2019-03-30T12:25:56.433Z,19.21
2019-03-30T12:28:25.113Z,19.35
2019-03-30T12:30:54.008Z,19.47
2019-03-30T12:33:22.511Z,19.61
2019-03-30T12:35:51.206Z,19.62
2019-03-30T12:38:19.797Z,19.43
2019-03-30T12:40:48.411Z,19.17
2019-03-30T12:43:17.111Z,18.92
2019-03-30T12:45:45.713Z,18.77
2019-03-30T12:48:14.205Z,18.62
2019-03-30T12:50:43.125Z,18.50
2019-03-30T12:53:11.692Z,18.50
2019-03-30T12:55:49.169Z,18.68
2019-03-30T12:58:11.803Z,18.91
2019-03-30T13:00:40.418Z,19.13
2019-03-30T13:03:08.978Z,19.24
2019-03-30T13:05:37.636Z,19.33
2019-03-30T13:08:06.371Z,19.44
2019-03-30T13:10:35.006Z,19.57
2019-03-30T13:13:03.816Z,19.68
2019-03-30T13:15:32.488Z,19.93
2019-03-30T13:18:01.074Z,20.52
2019-03-30T13:20:29.953Z,21.19
2019-03-30T13:22:58.442Z,21.78
2019-03-30T13:25:26.929Z,22.21
2019-03-30T13:27:55.602Z,22.58
2019-03-30T13:33:12.038Z,23.35
2019-03-30T13:35:40.527Z,23.70
2019-03-30T13:38:09.153Z,23.83
2019-03-30T13:40:39.272Z,23.82
2019-03-30T13:43:07.796Z,23.64
2019-03-30T13:45:36.421Z,23.52
2019-03-30T13:48:04.952Z,23.39
2019-03-30T13:50:33.426Z,23.30
2019-03-30T13:53:01.937Z,23.28
2019-03-30T13:55:30.662Z,23.27
2019-03-30T13:57:59.511Z,23.00
2019-03-30T14:00:28.041Z,22.78
2019-03-30T14:02:56.899Z,22.65
2019-03-30T14:05:25.702Z,22.43
2019-03-30T14:07:54.359Z,22.00
2019-03-30T14:10:23.566Z,21.50
2019-03-30T14:12:52.054Z,21.25
2019-03-30T14:15:20.529Z,21.17
2019-03-30T14:17:49.208Z,20.95
2019-03-30T14:20:17.690Z,20.77
2019-03-30T14:22:46.746Z,20.71
2019-03-30T14:25:15.262Z,20.54
2019-03-30T14:27:43.861Z,20.37
2019-03-30T14:30:13.105Z,20.32
2019-03-30T14:32:42.161Z,20.36
2019-03-30T14:35:10.920Z,20.39
2019-03-30T14:37:39.420Z,20.52
2019-03-30T14:40:09.709Z,20.79
2019-03-30T14:42:38.275Z,21.06
2019-03-30T14:45:07.890Z,21.35
2019-03-30T14:47:36.437Z,21.62
2019-03-30T14:50:07.979Z,21.84
2019-03-30T14:52:37.109Z,21.92
2019-03-30T14:55:08.999Z,21.94
2019-03-30T14:57:37.490Z,22.10
2019-03-30T15:00:09.800Z,22.32
2019-03-30T15:02:38.556Z,22.41
2019-03-30T15:05:08.744Z,22.52
2019-03-30T15:07:37.581Z,22.52
2019-03-30T15:10:08.382Z,22.11
2019-03-30T15:12:37.731Z,21.55
2019-03-30T15:15:08.451Z,21.01
2019-03-30T15:17:40.748Z,20.54
2019-03-30T15:20:12.807Z,20.25
2019-03-30T15:22:41.547Z,19.94
2019-03-30T15:25:11.764Z,19.91
2019-03-30T15:27:40.363Z,20.09
2019-03-30T15:30:09.605Z,20.46
2019-03-30T15:32:38.336Z,20.75
2019-03-30T15:35:07.946Z,21.04
2019-03-30T15:37:36.431Z,21.29
2019-03-30T15:40:07.214Z,21.63
2019-03-30T15:42:35.967Z,21.94
2019-03-30T15:45:07.094Z,22.27
2019-03-30T15:47:35.981Z,22.46
2019-03-30T15:50:05.894Z,22.54
2019-03-30T15:52:34.624Z,22.42
2019-03-30T15:55:04.342Z,22.20
2019-03-30T15:57:32.812Z,22.13
2019-03-30T16:00:01.290Z,22.26
2019-03-30T16:02:29.846Z,22.51
2019-03-30T16:04:58.412Z,22.72
2019-03-30T16:07:26.889Z,22.92
2019-03-30T16:09:55.630Z,23.08
2019-03-30T16:12:25.456Z,23.16
2019-03-30T16:14:54.240Z,22.97
2019-03-30T16:17:22.836Z,22.39
2019-03-30T16:19:51.323Z,21.70
2019-03-30T16:22:19.965Z,21.06
2019-03-30T16:24:48.472Z,20.60
2019-03-30T16:27:28.205Z,20.36
2019-03-30T16:29:47.332Z,20.40
2019-03-30T16:32:16.222Z,20.51
2019-03-30T16:34:46.921Z,20.59
2019-03-30T16:37:15.466Z,20.58
2019-03-30T16:39:44.216Z,20.51
2019-03-30T16:42:12.693Z,20.47
2019-03-30T16:44:41.184Z,20.38
2019-03-30T16:47:09.986Z,20.31
2019-03-30T16:49:38.474Z,20.24
2019-03-30T16:52:07.129Z,20.06
2019-03-30T16:54:35.615Z,19.74
2019-03-30T16:57:05.290Z,19.62
2019-03-30T16:59:33.789Z,19.61
2019-03-30T17:02:02.831Z,19.54
2019-03-30T17:04:31.491Z,19.36
2019-03-30T17:07:00.101Z,19.17
2019-03-30T17:09:28.600Z,19.01
2019-03-30T17:11:57.067Z,18.84
2019-03-30T17:14:25.581Z,18.67
2019-03-30T17:16:54.107Z,18.46
2019-03-30T17:19:22.822Z,18.14
2019-03-30T17:21:51.303Z,17.78
2019-03-30T17:24:20.013Z,17.39
2019-03-30T17:26:48.509Z,17.06
2019-03-30T17:29:17.006Z,16.74
2019-03-30T17:31:45.570Z,16.47
2019-03-30T17:34:14.219Z,16.21
2019-03-30T17:36:42.743Z,15.97
2019-03-30T17:39:12.591Z,15.76
2019-03-30T17:41:41.174Z,15.58
2019-03-30T17:44:09.657Z,15.40
2019-03-30T17:46:38.174Z,15.25
2019-03-30T17:49:06.749Z,15.12
2019-03-30T17:51:35.278Z,15.01
2019-03-30T17:54:03.785Z,14.92
2019-03-30T17:56:32.265Z,14.85
2019-03-30T17:59:00.746Z,14.81
2019-03-30T18:01:29.639Z,14.78
2019-03-30T18:03:58.131Z,14.75
2019-03-30T18:06:27.534Z,14.69
2019-03-30T18:08:56.107Z,14.65
2019-03-30T18:11:24.584Z,14.58
2019-03-30T18:13:53.377Z,14.50
2019-03-30T18:16:22.460Z,14.42
2019-03-30T18:18:51.328Z,14.34
2019-03-30T18:21:19.822Z,14.25
2019-03-30T18:23:48.543Z,14.15
2019-03-30T18:26:17.010Z,14.06
2019-03-30T18:28:45.568Z,14.04
2019-03-30T18:31:14.229Z,14.00
2019-03-30T18:33:43.173Z,13.96
2019-03-30T18:36:14.779Z,13.89
2019-03-30T18:38:47.275Z,13.82
2019-03-30T18:41:15.844Z,13.76
2019-03-30T18:43:44.492Z,13.73
2019-03-30T18:46:12.962Z,13.69
2019-03-30T18:48:41.551Z,13.65
2019-03-30T18:51:10.029Z,13.60
2019-03-30T18:53:38.863Z,13.53
2019-03-30T18:56:07.367Z,13.44
2019-03-30T18:58:41.833Z,13.36
2019-03-30T19:01:06.296Z,13.28
2019-03-30T19:03:34.773Z,13.19
2019-03-30T19:06:06.283Z,13.08
2019-03-30T19:08:34.851Z,12.98
2019-03-30T19:11:03.521Z,12.86
2019-03-30T19:13:32.509Z,12.72
2019-03-30T19:16:01.194Z,12.60
2019-03-30T19:18:29.731Z,12.46
2019-03-30T19:20:58.593Z,12.33
2019-03-30T19:23:27.095Z,12.21
2019-03-30T19:25:55.706Z,12.11
2019-03-30T19:28:24.343Z,12.00
2019-03-30T19:30:52.818Z,11.91
2019-03-30T19:33:21.318Z,11.82
2019-03-30T19:35:49.920Z,11.74
2019-03-30T19:38:18.395Z,11.68
2019-03-30T19:40:46.881Z,11.61
2019-03-30T19:43:15.672Z,11.54
2019-03-30T19:45:44.133Z,11.49
2019-03-30T19:48:12.855Z,11.42
2019-03-30T19:50:41.463Z,11.32
2019-03-30T19:53:09.926Z,11.25
2019-03-30T19:55:38.765Z,11.18
2019-03-30T19:58:07.570Z,11.08
2019-03-30T20:00:38.655Z,11.01
2019-03-30T20:03:06.407Z,10.94
2019-03-30T20:05:35.168Z,10.87
2019-03-30T20:08:12.096Z,10.80
2019-03-30T20:10:34.160Z,10.72
2019-03-30T20:13:02.835Z,10.65
2019-03-30T20:15:31.660Z,10.58
2019-03-30T20:18:00.174Z,10.50
2019-03-30T20:20:28.682Z,10.43
2019-03-30T20:22:57.160Z,10.35
2019-03-30T20:25:26.115Z,10.29
2019-03-30T20:27:55.069Z,10.23
2019-03-30T20:30:24.555Z,10.15
2019-03-30T20:32:53.196Z,10.07
2019-03-30T20:35:21.772Z,9.99
2019-03-30T20:37:50.248Z,9.93
2019-03-30T20:40:18.726Z,9.87
2019-03-30T20:42:47.333Z,9.79
2019-03-30T20:45:16.169Z,9.73
2019-03-30T20:47:44.725Z,9.68
2019-03-30T20:50:14.494Z,9.63
2019-03-30T20:52:42.969Z,9.57
2019-03-30T20:55:11.675Z,9.51
2019-03-30T20:57:40.213Z,9.44
2019-03-30T21:00:11.298Z,9.38
2019-03-30T21:02:39.768Z,9.31
2019-03-30T21:05:09.827Z,9.25
2019-03-30T21:07:41.659Z,9.19
2019-03-30T21:10:09.153Z,9.14
2019-03-30T21:12:37.739Z,9.09
2019-03-30T21:15:07.227Z,9.05
2019-03-30T21:17:35.978Z,9.00
2019-03-30T21:20:06.614Z,8.95
2019-03-30T21:22:35.105Z,8.92
2019-03-30T21:25:04.759Z,8.90
2019-03-30T21:27:33.348Z,8.86
2019-03-30T21:30:02.023Z,8.84
2019-03-30T21:32:30.481Z,8.78
2019-03-30T21:34:59.204Z,8.75
2019-03-30T21:37:27.822Z,8.72
2019-03-30T21:39:56.557Z,8.68
2019-03-30T21:42:25.281Z,8.64
2019-03-30T21:44:53.919Z,8.59
2019-03-30T21:47:22.398Z,8.56
2019-03-30T21:49:50.996Z,8.53
2019-03-30T21:52:19.466Z,8.49
2019-03-30T21:54:47.953Z,8.45
2019-03-30T21:57:16.568Z,8.42
2019-03-30T21:59:45.086Z,8.38
2019-03-30T22:02:13.537Z,8.36
2019-03-30T22:04:42.424Z,8.33
2019-03-30T22:07:11.325Z,8.30
2019-03-30T22:09:39.804Z,8.27
2019-03-30T22:12:08.332Z,8.25
2019-03-30T22:14:37.264Z,8.21
2019-03-30T22:17:05.733Z,8.18
2019-03-30T22:19:34.353Z,8.14
2019-03-30T22:22:03.019Z,8.11
2019-03-30T22:24:31.490Z,8.09
2019-03-30T22:26:59.998Z,8.05
2019-03-30T22:29:28.480Z,8.01
2019-03-30T22:31:56.965Z,7.99
2019-03-30T22:34:25.577Z,7.93
2019-03-30T22:36:54.051Z,7.91
2019-03-30T22:39:22.567Z,7.87
2019-03-30T22:41:51.128Z,7.83
2019-03-30T22:44:19.598Z,7.81
2019-03-30T22:46:48.097Z,7.76
2019-03-30T22:49:16.742Z,7.73
2019-03-30T22:51:45.210Z,7.71
2019-03-30T22:54:13.686Z,7.68
2019-03-30T22:56:42.492Z,7.65
2019-03-30T22:59:11.267Z,7.62
2019-03-30T23:01:40.365Z,7.60
2019-03-30T23:04:09.068Z,7.56
2019-03-30T23:06:37.550Z,7.55
2019-03-30T23:09:06.762Z,7.54
2019-03-30T23:11:35.566Z,7.52
2019-03-30T23:14:04.195Z,7.53
2019-03-30T23:16:32.746Z,7.55
2019-03-30T23:19:01.522Z,7.59
2019-03-30T23:21:30.027Z,7.63
2019-03-30T23:23:58.506Z,7.69
2019-03-30T23:26:27.082Z,7.74
2019-03-30T23:28:55.549Z,7.78
2019-03-30T23:31:24.054Z,7.81
2019-03-30T23:33:52.606Z,7.85
2019-03-30T23:36:21.346Z,7.87
2019-03-30T23:38:49.839Z,7.87
2019-03-30T23:41:18.515Z,7.89
2019-03-30T23:43:47.007Z,7.89
2019-03-30T23:46:15.518Z,7.92
2019-03-30T23:48:44.107Z,7.92
2019-03-30T23:51:12.833Z,7.94
2019-03-30T23:53:41.320Z,7.95
2019-03-30T23:56:22.308Z,7.95
2019-03-30T23:58:51.371Z,7.92
